sensor_id;sensor_type;location;lat;lon;timestamp;P1;durP1;ratioP1;P2;durP2;ratioP2
5795;SDS011;2924;51.458;7.046;2022-10-19T00:01:02;23.27;;;7.90;;
5795;SDS011;2924;51.458;7.046;2022-10-19T00:03:31;19.87;;;9.97;;
5795;SDS011;2924;51.458;7.046;2022-10-19T00:05:57;16.43;;;9.03;;
5795;SDS011;2924;51.458;7.046;2022-10-19T00:08:23;22.40;;;10.00;;
5795;SDS011;2924;51.458;7.046;2022-10-19T00:10:48;27.90;;;9.00;;
5795;SDS011;2924;51.458;7.046;2022-10-19T00:13:14;16.10;;;8.90;;
5795;SDS011;2924;51.458;7.046;2022-10-19T00:15:40;18.73;;;9.73;;
5795;SDS011;2924;51.458;7.046;2022-10-19T00:18:06;16.70;;;9.27;;
5795;SDS011;2924;51.458;7.046;2022-10-19T00:20:33;19.27;;;8.93;;
5795;SDS011;2924;51.458;7.046;2022-10-19T00:23:00;19.30;;;9.70;;
5795;SDS011;2924;51.458;7.046;2022-10-19T00:25:26;18.43;;;8.80;;
5795;SDS011;2924;51.458;7.046;2022-10-19T00:27:51;24.50;;;10.40;;
5795;SDS011;2924;51.458;7.046;2022-10-19T00:30:17;25.87;;;9.73;;
5795;SDS011;2924;51.458;7.046;2022-10-19T00:32:43;20.83;;;8.87;;
5795;SDS011;2924;51.458;7.046;2022-10-19T00:35:08;18.67;;;9.63;;
5795;SDS011;2924;51.458;7.046;2022-10-19T00:37:34;21.57;;;7.93;;
5795;SDS011;2924;51.458;7.046;2022-10-19T00:40:00;14.00;;;10.30;;
5795;SDS011;2924;51.458;7.046;2022-10-19T00:42:25;35.53;;;11.50;;
5795;SDS011;2924;51.458;7.046;2022-10-19T00:47:24;34.23;;;9.80;;
5795;SDS011;2924;51.458;7.046;2022-10-19T00:49:50;20.40;;;10.47;;
5795;SDS011;2924;51.458;7.046;2022-10-19T00:52:17;41.07;;;13.10;;
5795;SDS011;2924;51.458;7.046;2022-10-19T00:54:45;27.43;;;13.80;;
5795;SDS011;2924;51.458;7.046;2022-10-19T00:57:13;22.97;;;14.47;;
5795;SDS011;2924;51.458;7.046;2022-10-19T00:59:39;21.83;;;12.80;;
5795;SDS011;2924;51.458;7.046;2022-10-19T01:02:08;26.50;;;12.10;;
5795;SDS011;2924;51.458;7.046;2022-10-19T01:04:35;19.73;;;12.30;;
5795;SDS011;2924;51.458;7.046;2022-10-19T01:07:03;21.00;;;10.97;;
5795;SDS011;2924;51.458;7.046;2022-10-19T01:09:30;21.83;;;10.80;;
5795;SDS011;2924;51.458;7.046;2022-10-19T01:11:57;24.00;;;11.47;;
5795;SDS011;2924;51.458;7.046;2022-10-19T01:17:17;27.30;;;12.43;;
5795;SDS011;2924;51.458;7.046;2022-10-19T01:23:22;22.70;;;11.80;;
5795;SDS011;2924;51.458;7.046;2022-10-19T01:25:49;24.80;;;10.70;;
5795;SDS011;2924;51.458;7.046;2022-10-19T01:34:50;38.17;;;11.27;;
5795;SDS011;2924;51.458;7.046;2022-10-19T01:39:19;43.03;;;11.80;;
5795;SDS011;2924;51.458;7.046;2022-10-19T01:41:55;35.67;;;13.73;;
5795;SDS011;2924;51.458;7.046;2022-10-19T01:47:13;21.00;;;12.17;;
5795;SDS011;2924;51.458;7.046;2022-10-19T01:49:48;34.13;;;13.87;;
5795;SDS011;2924;51.458;7.046;2022-10-19T01:52:18;24.23;;;12.10;;
5795;SDS011;2924;51.458;7.046;2022-10-19T01:54:53;19.77;;;12.70;;
5795;SDS011;2924;51.458;7.046;2022-10-19T01:57:56;21.70;;;11.97;;
5795;SDS011;2924;51.458;7.046;2022-10-19T02:00:16;21.67;;;11.47;;
5795;SDS011;2924;51.458;7.046;2022-10-19T02:02:46;25.67;;;12.30;;
5795;SDS011;2924;51.458;7.046;2022-10-19T02:05:15;26.30;;;10.80;;
5795;SDS011;2924;51.458;7.046;2022-10-19T02:07:45;21.90;;;11.30;;
5795;SDS011;2924;51.458;7.046;2022-10-19T02:10:18;28.07;;;12.00;;
5795;SDS011;2924;51.458;7.046;2022-10-19T02:12:44;26.13;;;11.60;;
5795;SDS011;2924;51.458;7.046;2022-10-19T02:15:14;17.87;;;9.97;;
5795;SDS011;2924;51.458;7.046;2022-10-19T02:17:45;21.70;;;10.50;;
5795;SDS011;2924;51.458;7.046;2022-10-19T02:20:13;30.20;;;10.87;;
5795;SDS011;2924;51.458;7.046;2022-10-19T02:22:39;23.00;;;12.37;;
5795;SDS011;2924;51.458;7.046;2022-10-19T02:25:05;23.80;;;12.53;;
5795;SDS011;2924;51.458;7.046;2022-10-19T02:27:32;20.40;;;12.40;;
5795;SDS011;2924;51.458;7.046;2022-10-19T02:29:58;19.03;;;10.40;;
5795;SDS011;2924;51.458;7.046;2022-10-19T02:32:24;26.03;;;10.83;;
5795;SDS011;2924;51.458;7.046;2022-10-19T02:34:51;21.33;;;11.77;;
5795;SDS011;2924;51.458;7.046;2022-10-19T02:37:17;24.20;;;13.37;;
5795;SDS011;2924;51.458;7.046;2022-10-19T02:39:42;26.00;;;12.57;;
5795;SDS011;2924;51.458;7.046;2022-10-19T02:42:13;26.77;;;10.83;;
5795;SDS011;2924;51.458;7.046;2022-10-19T02:45:06;28.43;;;13.17;;
5795;SDS011;2924;51.458;7.046;2022-10-19T02:47:56;24.40;;;11.20;;
5795;SDS011;2924;51.458;7.046;2022-10-19T02:50:25;21.90;;;12.40;;
5795;SDS011;2924;51.458;7.046;2022-10-19T02:52:51;22.70;;;10.90;;
5795;SDS011;2924;51.458;7.046;2022-10-19T02:55:16;20.03;;;11.77;;
5795;SDS011;2924;51.458;7.046;2022-10-19T02:57:42;41.30;;;16.37;;
5795;SDS011;2924;51.458;7.046;2022-10-19T03:00:08;34.20;;;15.60;;
5795;SDS011;2924;51.458;7.046;2022-10-19T03:02:34;30.53;;;15.90;;
5795;SDS011;2924;51.458;7.046;2022-10-19T03:05:00;25.50;;;15.27;;
5795;SDS011;2924;51.458;7.046;2022-10-19T03:07:25;30.03;;;14.10;;
5795;SDS011;2924;51.458;7.046;2022-10-19T03:09:51;31.23;;;14.23;;
5795;SDS011;2924;51.458;7.046;2022-10-19T03:12:17;31.43;;;12.97;;
5795;SDS011;2924;51.458;7.046;2022-10-19T03:14:43;31.47;;;14.83;;
5795;SDS011;2924;51.458;7.046;2022-10-19T03:17:08;24.87;;;14.20;;
5795;SDS011;2924;51.458;7.046;2022-10-19T03:19:35;37.83;;;14.67;;
5795;SDS011;2924;51.458;7.046;2022-10-19T03:22:00;25.40;;;14.77;;
5795;SDS011;2924;51.458;7.046;2022-10-19T03:24:26;20.00;;;14.20;;
5795;SDS011;2924;51.458;7.046;2022-10-19T03:26:54;68.27;;;15.83;;
5795;SDS011;2924;51.458;7.046;2022-10-19T03:29:19;28.30;;;14.80;;
5795;SDS011;2924;51.458;7.046;2022-10-19T03:31:45;21.13;;;14.43;;
5795;SDS011;2924;51.458;7.046;2022-10-19T03:34:10;33.40;;;15.27;;
5795;SDS011;2924;51.458;7.046;2022-10-19T03:36:37;34.80;;;14.97;;
5795;SDS011;2924;51.458;7.046;2022-10-19T03:39:05;29.83;;;14.57;;
5795;SDS011;2924;51.458;7.046;2022-10-19T03:41:34;36.10;;;14.43;;
5795;SDS011;2924;51.458;7.046;2022-10-19T03:44:01;32.20;;;15.70;;
5795;SDS011;2924;51.458;7.046;2022-10-19T03:46:27;41.10;;;16.30;;
5795;SDS011;2924;51.458;7.046;2022-10-19T03:48:52;39.93;;;17.50;;
5795;SDS011;2924;51.458;7.046;2022-10-19T03:51:22;53.87;;;18.80;;
5795;SDS011;2924;51.458;7.046;2022-10-19T03:53:57;39.73;;;18.30;;
5795;SDS011;2924;51.458;7.046;2022-10-19T03:56:25;47.37;;;19.50;;
5795;SDS011;2924;51.458;7.046;2022-10-19T03:58:54;29.47;;;16.73;;
5795;SDS011;2924;51.458;7.046;2022-10-19T04:01:24;38.27;;;19.13;;
5795;SDS011;2924;51.458;7.046;2022-10-19T04:04:05;51.37;;;20.80;;
5795;SDS011;2924;51.458;7.046;2022-10-19T04:06:34;36.70;;;20.20;;
5795;SDS011;2924;51.458;7.046;2022-10-19T04:09:03;39.13;;;20.47;;
5795;SDS011;2924;51.458;7.046;2022-10-19T04:11:30;50.97;;;21.97;;
5795;SDS011;2924;51.458;7.046;2022-10-19T04:13:57;41.70;;;19.63;;
5795;SDS011;2924;51.458;7.046;2022-10-19T04:16:24;46.00;;;20.93;;
5795;SDS011;2924;51.458;7.046;2022-10-19T04:18:51;45.27;;;18.03;;
5795;SDS011;2924;51.458;7.046;2022-10-19T04:21:30;37.20;;;18.10;;
5795;SDS011;2924;51.458;7.046;2022-10-19T04:23:59;36.97;;;16.80;;
5795;SDS011;2924;51.458;7.046;2022-10-19T04:26:40;32.27;;;18.97;;
5795;SDS011;2924;51.458;7.046;2022-10-19T04:29:09;31.83;;;16.13;;
5795;SDS011;2924;51.458;7.046;2022-10-19T04:31:35;28.73;;;15.40;;
5795;SDS011;2924;51.458;7.046;2022-10-19T04:34:01;25.47;;;13.67;;
5795;SDS011;2924;51.458;7.046;2022-10-19T04:36:27;22.93;;;14.07;;
5795;SDS011;2924;51.458;7.046;2022-10-19T04:38:52;27.93;;;12.97;;
5795;SDS011;2924;51.458;7.046;2022-10-19T04:41:19;23.60;;;13.63;;
5795;SDS011;2924;51.458;7.046;2022-10-19T04:43:46;29.40;;;15.40;;
5795;SDS011;2924;51.458;7.046;2022-10-19T04:46:13;30.20;;;16.30;;
5795;SDS011;2924;51.458;7.046;2022-10-19T04:48:41;34.00;;;19.13;;
5795;SDS011;2924;51.458;7.046;2022-10-19T04:51:07;31.97;;;18.17;;
5795;SDS011;2924;51.458;7.046;2022-10-19T04:53:33;31.70;;;17.07;;
5795;SDS011;2924;51.458;7.046;2022-10-19T04:55:59;54.60;;;19.00;;
5795;SDS011;2924;51.458;7.046;2022-10-19T04:58:30;41.40;;;16.77;;
5795;SDS011;2924;51.458;7.046;2022-10-19T05:00:55;22.50;;;14.00;;
5795;SDS011;2924;51.458;7.046;2022-10-19T05:03:21;95.53;;;16.70;;
5795;SDS011;2924;51.458;7.046;2022-10-19T05:05:47;132.17;;;18.37;;
5795;SDS011;2924;51.458;7.046;2022-10-19T05:08:12;137.93;;;18.90;;
5795;SDS011;2924;51.458;7.046;2022-10-19T05:10:38;149.20;;;22.07;;
5795;SDS011;2924;51.458;7.046;2022-10-19T05:13:04;169.40;;;23.00;;
5795;SDS011;2924;51.458;7.046;2022-10-19T05:15:29;157.20;;;22.23;;
5795;SDS011;2924;51.458;7.046;2022-10-19T05:17:55;217.60;;;24.37;;
5795;SDS011;2924;51.458;7.046;2022-10-19T05:20:21;205.97;;;23.57;;
5795;SDS011;2924;51.458;7.046;2022-10-19T05:22:48;251.87;;;28.60;;
5795;SDS011;2924;51.458;7.046;2022-10-19T05:25:13;319.03;;;30.80;;
5795;SDS011;2924;51.458;7.046;2022-10-19T05:27:39;290.43;;;25.47;;
5795;SDS011;2924;51.458;7.046;2022-10-19T05:30:05;375.87;;;32.00;;
5795;SDS011;2924;51.458;7.046;2022-10-19T05:32:32;424.63;;;40.23;;
5795;SDS011;2924;51.458;7.046;2022-10-19T05:34:58;292.20;;;32.87;;
5795;SDS011;2924;51.458;7.046;2022-10-19T05:37:23;390.07;;;33.30;;
5795;SDS011;2924;51.458;7.046;2022-10-19T05:39:50;367.00;;;38.10;;
5795;SDS011;2924;51.458;7.046;2022-10-19T05:42:15;241.63;;;29.50;;
5795;SDS011;2924;51.458;7.046;2022-10-19T05:44:41;422.77;;;39.30;;
5795;SDS011;2924;51.458;7.046;2022-10-19T05:47:07;420.50;;;45.43;;
5795;SDS011;2924;51.458;7.046;2022-10-19T05:49:32;256.80;;;30.13;;
5795;SDS011;2924;51.458;7.046;2022-10-19T05:51:58;372.43;;;38.37;;
5795;SDS011;2924;51.458;7.046;2022-10-19T05:54:23;499.07;;;52.73;;
5795;SDS011;2924;51.458;7.046;2022-10-19T05:56:49;417.90;;;47.57;;
5795;SDS011;2924;51.458;7.046;2022-10-19T05:59:16;353.53;;;42.67;;
5795;SDS011;2924;51.458;7.046;2022-10-19T06:01:43;489.33;;;49.23;;
5795;SDS011;2924;51.458;7.046;2022-10-19T06:04:10;310.77;;;39.23;;
5795;SDS011;2924;51.458;7.046;2022-10-19T06:06:38;374.27;;;48.03;;
5795;SDS011;2924;51.458;7.046;2022-10-19T06:09:03;344.20;;;36.37;;
5795;SDS011;2924;51.458;7.046;2022-10-19T06:11:30;375.47;;;42.70;;
5795;SDS011;2924;51.458;7.046;2022-10-19T06:13:59;273.13;;;37.53;;
5795;SDS011;2924;51.458;7.046;2022-10-19T06:16:27;327.23;;;40.97;;
5795;SDS011;2924;51.458;7.046;2022-10-19T06:18:55;446.00;;;49.37;;
5795;SDS011;2924;51.458;7.046;2022-10-19T06:21:23;331.67;;;43.63;;
5795;SDS011;2924;51.458;7.046;2022-10-19T06:23:51;358.30;;;40.30;;
5795;SDS011;2924;51.458;7.046;2022-10-19T06:26:18;392.63;;;44.13;;
5795;SDS011;2924;51.458;7.046;2022-10-19T06:28:44;305.73;;;43.20;;
5795;SDS011;2924;51.458;7.046;2022-10-19T06:31:11;247.27;;;40.97;;
5795;SDS011;2924;51.458;7.046;2022-10-19T06:33:39;400.57;;;48.30;;
5795;SDS011;2924;51.458;7.046;2022-10-19T06:38:36;256.40;;;36.90;;
5795;SDS011;2924;51.458;7.046;2022-10-19T06:41:02;104.93;;;30.10;;
5795;SDS011;2924;51.458;7.046;2022-10-19T06:43:28;114.37;;;28.10;;
5795;SDS011;2924;51.458;7.046;2022-10-19T06:45:54;171.93;;;35.97;;
5795;SDS011;2924;51.458;7.046;2022-10-19T06:48:20;103.63;;;31.40;;
5795;SDS011;2924;51.458;7.046;2022-10-19T06:50:45;87.77;;;31.00;;
5795;SDS011;2924;51.458;7.046;2022-10-19T06:53:11;84.73;;;31.00;;
5795;SDS011;2924;51.458;7.046;2022-10-19T06:55:37;93.63;;;31.10;;
5795;SDS011;2924;51.458;7.046;2022-10-19T06:58:02;82.63;;;31.27;;
5795;SDS011;2924;51.458;7.046;2022-10-19T07:00:28;92.90;;;33.03;;
5795;SDS011;2924;51.458;7.046;2022-10-19T07:02:55;86.67;;;31.73;;
5795;SDS011;2924;51.458;7.046;2022-10-19T07:05:22;86.73;;;33.57;;
5795;SDS011;2924;51.458;7.046;2022-10-19T07:07:48;91.30;;;33.57;;
5795;SDS011;2924;51.458;7.046;2022-10-19T07:10:13;85.83;;;34.43;;
5795;SDS011;2924;51.458;7.046;2022-10-19T07:12:39;74.33;;;31.73;;
5795;SDS011;2924;51.458;7.046;2022-10-19T07:15:05;74.00;;;31.93;;
5795;SDS011;2924;51.458;7.046;2022-10-19T07:17:31;73.53;;;31.77;;
5795;SDS011;2924;51.458;7.046;2022-10-19T07:19:56;84.40;;;33.50;;
5795;SDS011;2924;51.458;7.046;2022-10-19T07:22:22;74.70;;;34.13;;
5795;SDS011;2924;51.458;7.046;2022-10-19T07:24:48;75.70;;;33.03;;
5795;SDS011;2924;51.458;7.046;2022-10-19T07:27:13;63.67;;;30.47;;
5795;SDS011;2924;51.458;7.046;2022-10-19T07:29:39;59.10;;;30.43;;
5795;SDS011;2924;51.458;7.046;2022-10-19T07:32:05;62.73;;;32.37;;
5795;SDS011;2924;51.458;7.046;2022-10-19T07:34:31;58.53;;;30.27;;
5795;SDS011;2924;51.458;7.046;2022-10-19T07:36:56;69.80;;;33.00;;
5795;SDS011;2924;51.458;7.046;2022-10-19T07:39:22;63.57;;;33.17;;
5795;SDS011;2924;51.458;7.046;2022-10-19T07:41:48;62.13;;;32.57;;
5795;SDS011;2924;51.458;7.046;2022-10-19T07:44:13;62.10;;;31.93;;
5795;SDS011;2924;51.458;7.046;2022-10-19T07:46:39;55.07;;;28.87;;
5795;SDS011;2924;51.458;7.046;2022-10-19T07:49:08;63.17;;;29.97;;
5795;SDS011;2924;51.458;7.046;2022-10-19T07:51:37;44.47;;;26.00;;
5795;SDS011;2924;51.458;7.046;2022-10-19T07:54:04;67.73;;;29.27;;
5795;SDS011;2924;51.458;7.046;2022-10-19T07:56:30;53.80;;;28.47;;
5795;SDS011;2924;51.458;7.046;2022-10-19T07:58:56;50.53;;;27.30;;
5795;SDS011;2924;51.458;7.046;2022-10-19T08:01:24;49.87;;;25.53;;
5795;SDS011;2924;51.458;7.046;2022-10-19T08:03:53;52.70;;;24.40;;
5795;SDS011;2924;51.458;7.046;2022-10-19T08:06:19;54.13;;;22.97;;
5795;SDS011;2924;51.458;7.046;2022-10-19T08:08:46;43.03;;;20.00;;
5795;SDS011;2924;51.458;7.046;2022-10-19T08:11:16;40.93;;;21.70;;
5795;SDS011;2924;51.458;7.046;2022-10-19T08:13:43;29.53;;;19.70;;
5795;SDS011;2924;51.458;7.046;2022-10-19T08:16:28;26.90;;;17.40;;
5795;SDS011;2924;51.458;7.046;2022-10-19T08:19:11;27.70;;;16.03;;
5795;SDS011;2924;51.458;7.046;2022-10-19T08:21:39;46.90;;;18.33;;
5795;SDS011;2924;51.458;7.046;2022-10-19T08:24:06;33.90;;;14.03;;
5795;SDS011;2924;51.458;7.046;2022-10-19T08:26:33;23.13;;;12.67;;
5795;SDS011;2924;51.458;7.046;2022-10-19T08:29:02;18.67;;;11.83;;
5795;SDS011;2924;51.458;7.046;2022-10-19T08:31:47;23.23;;;10.30;;
5795;SDS011;2924;51.458;7.046;2022-10-19T08:34:13;24.13;;;10.50;;
5795;SDS011;2924;51.458;7.046;2022-10-19T08:36:39;22.07;;;9.83;;
5795;SDS011;2924;51.458;7.046;2022-10-19T08:39:06;13.53;;;8.30;;
5795;SDS011;2924;51.458;7.046;2022-10-19T08:44:22;22.90;;;8.33;;
5795;SDS011;2924;51.458;7.046;2022-10-19T08:47:13;15.90;;;7.60;;
5795;SDS011;2924;51.458;7.046;2022-10-19T08:49:51;16.50;;;6.80;;
5795;SDS011;2924;51.458;7.046;2022-10-19T08:52:21;11.47;;;6.43;;
5795;SDS011;2924;51.458;7.046;2022-10-19T08:54:56;8.03;;;5.70;;
5795;SDS011;2924;51.458;7.046;2022-10-19T09:03:04;14.47;;;5.43;;
5795;SDS011;2924;51.458;7.046;2022-10-19T09:08:46;13.33;;;3.77;;
5795;SDS011;2924;51.458;7.046;2022-10-19T09:11:12;13.57;;;3.90;;
5795;SDS011;2924;51.458;7.046;2022-10-19T09:16:12;16.43;;;4.90;;
5795;SDS011;2924;51.458;7.046;2022-10-19T09:18:39;14.13;;;4.20;;
5795;SDS011;2924;51.458;7.046;2022-10-19T09:24:09;15.43;;;3.73;;
5795;SDS011;2924;51.458;7.046;2022-10-19T09:26:55;15.33;;;3.40;;
5795;SDS011;2924;51.458;7.046;2022-10-19T09:29:25;6.43;;;3.30;;
5795;SDS011;2924;51.458;7.046;2022-10-19T09:31:53;15.70;;;3.37;;
5795;SDS011;2924;51.458;7.046;2022-10-19T09:34:37;4.57;;;2.00;;
5795;SDS011;2924;51.458;7.046;2022-10-19T09:37:15;9.47;;;1.73;;
5795;SDS011;2924;51.458;7.046;2022-10-19T09:39:41;6.03;;;1.50;;
5795;SDS011;2924;51.458;7.046;2022-10-19T09:44:37;3.90;;;1.70;;
5795;SDS011;2924;51.458;7.046;2022-10-19T09:52:44;9.03;;;2.17;;
5795;SDS011;2924;51.458;7.046;2022-10-19T09:55:27;5.87;;;1.70;;
5795;SDS011;2924;51.458;7.046;2022-10-19T10:00:37;8.77;;;1.40;;
5795;SDS011;2924;51.458;7.046;2022-10-19T10:03:06;12.53;;;1.30;;
5795;SDS011;2924;51.458;7.046;2022-10-19T10:05:45;9.03;;;1.20;;
5795;SDS011;2924;51.458;7.046;2022-10-19T10:08:13;3.73;;;1.40;;
5795;SDS011;2924;51.458;7.046;2022-10-19T10:10:43;8.07;;;1.63;;
5795;SDS011;2924;51.458;7.046;2022-10-19T10:13:18;6.27;;;1.53;;
5795;SDS011;2924;51.458;7.046;2022-10-19T10:15:50;6.37;;;1.50;;
5795;SDS011;2924;51.458;7.046;2022-10-19T10:18:20;8.90;;;1.70;;
5795;SDS011;2924;51.458;7.046;2022-10-19T10:23:29;4.07;;;1.50;;
5795;SDS011;2924;51.458;7.046;2022-10-19T10:26:00;3.63;;;1.37;;
5795;SDS011;2924;51.458;7.046;2022-10-19T10:28:28;7.50;;;1.40;;
5795;SDS011;2924;51.458;7.046;2022-10-19T10:31:04;6.30;;;1.10;;
5795;SDS011;2924;51.458;7.046;2022-10-19T10:33:31;5.57;;;2.13;;
5795;SDS011;2924;51.458;7.046;2022-10-19T10:36:01;5.50;;;0.90;;
5795;SDS011;2924;51.458;7.046;2022-10-19T10:38:33;3.77;;;1.03;;
5795;SDS011;2924;51.458;7.046;2022-10-19T10:41:10;8.93;;;2.03;;
5795;SDS011;2924;51.458;7.046;2022-10-19T10:43:48;3.23;;;0.93;;
5795;SDS011;2924;51.458;7.046;2022-10-19T10:47:04;6.30;;;1.00;;
5795;SDS011;2924;51.458;7.046;2022-10-19T10:49:44;5.50;;;1.40;;
5795;SDS011;2924;51.458;7.046;2022-10-19T10:52:17;11.23;;;1.47;;
5795;SDS011;2924;51.458;7.046;2022-10-19T10:54:58;5.83;;;1.10;;
5795;SDS011;2924;51.458;7.046;2022-10-19T10:57:24;5.93;;;1.50;;
5795;SDS011;2924;51.458;7.046;2022-10-19T11:00:02;7.47;;;1.63;;
5795;SDS011;2924;51.458;7.046;2022-10-19T11:02:37;4.97;;;1.57;;
5795;SDS011;2924;51.458;7.046;2022-10-19T11:05:37;4.57;;;1.43;;
5795;SDS011;2924;51.458;7.046;2022-10-19T11:10:59;3.93;;;1.73;;
5795;SDS011;2924;51.458;7.046;2022-10-19T11:16:10;9.50;;;1.40;;
5795;SDS011;2924;51.458;7.046;2022-10-19T11:21:14;10.20;;;1.23;;
5795;SDS011;2924;51.458;7.046;2022-10-19T11:26:33;7.43;;;1.50;;
5795;SDS011;2924;51.458;7.046;2022-10-19T11:31:53;2.50;;;0.93;;
5795;SDS011;2924;51.458;7.046;2022-10-19T11:42:39;4.17;;;1.10;;
5795;SDS011;2924;51.458;7.046;2022-10-19T11:48:49;7.13;;;2.07;;
5795;SDS011;2924;51.458;7.046;2022-10-19T11:51:25;5.80;;;1.23;;
5795;SDS011;2924;51.458;7.046;2022-10-19T11:56:58;7.70;;;1.20;;
5795;SDS011;2924;51.458;7.046;2022-10-19T12:02:46;3.80;;;1.07;;
5795;SDS011;2924;51.458;7.046;2022-10-19T12:05:48;1.43;;;1.00;;
5795;SDS011;2924;51.458;7.046;2022-10-19T12:14:14;2.87;;;1.50;;
5795;SDS011;2924;51.458;7.046;2022-10-19T12:16:44;6.10;;;1.20;;
5795;SDS011;2924;51.458;7.046;2022-10-19T12:19:20;3.93;;;1.40;;
5795;SDS011;2924;51.458;7.046;2022-10-19T12:21:49;0.93;;;0.93;;
5795;SDS011;2924;51.458;7.046;2022-10-19T12:24:19;3.37;;;1.27;;
5795;SDS011;2924;51.458;7.046;2022-10-19T12:26:49;1.80;;;1.10;;
5795;SDS011;2924;51.458;7.046;2022-10-19T12:29:26;8.30;;;1.63;;
5795;SDS011;2924;51.458;7.046;2022-10-19T12:31:58;2.90;;;1.23;;
5795;SDS011;2924;51.458;7.046;2022-10-19T12:37:05;2.90;;;1.03;;
5795;SDS011;2924;51.458;7.046;2022-10-19T12:42:51;9.40;;;1.03;;
5795;SDS011;2924;51.458;7.046;2022-10-19T12:45:32;4.47;;;1.30;;
5795;SDS011;2924;51.458;7.046;2022-10-19T13:01:03;3.93;;;0.97;;
5795;SDS011;2924;51.458;7.046;2022-10-19T13:03:34;4.30;;;1.33;;
5795;SDS011;2924;51.458;7.046;2022-10-19T13:08:40;3.17;;;0.97;;
5795;SDS011;2924;51.458;7.046;2022-10-19T13:11:15;6.90;;;1.20;;
5795;SDS011;2924;51.458;7.046;2022-10-19T13:13:52;1.60;;;1.00;;
5795;SDS011;2924;51.458;7.046;2022-10-19T13:21:43;6.20;;;1.93;;
5795;SDS011;2924;51.458;7.046;2022-10-19T13:27:03;6.87;;;1.77;;
5795;SDS011;2924;51.458;7.046;2022-10-19T13:46:13;6.40;;;1.30;;
5795;SDS011;2924;51.458;7.046;2022-10-19T13:51:48;10.70;;;1.30;;
5795;SDS011;2924;51.458;7.046;2022-10-19T14:00:34;5.90;;;1.67;;
5795;SDS011;2924;51.458;7.046;2022-10-19T14:06:15;6.80;;;1.57;;
5795;SDS011;2924;51.458;7.046;2022-10-19T14:11:47;4.00;;;1.20;;
5795;SDS011;2924;51.458;7.046;2022-10-19T14:14:17;11.27;;;1.43;;
5795;SDS011;2924;51.458;7.046;2022-10-19T14:16:49;4.70;;;1.93;;
5795;SDS011;2924;51.458;7.046;2022-10-19T14:19:24;4.33;;;0.80;;
5795;SDS011;2924;51.458;7.046;2022-10-19T14:22:18;3.53;;;1.10;;
5795;SDS011;2924;51.458;7.046;2022-10-19T14:24:59;5.23;;;1.60;;
5795;SDS011;2924;51.458;7.046;2022-10-19T14:27:40;8.77;;;1.90;;
5795;SDS011;2924;51.458;7.046;2022-10-19T14:30:19;7.90;;;1.37;;
5795;SDS011;2924;51.458;7.046;2022-10-19T14:32:53;5.80;;;1.90;;
5795;SDS011;2924;51.458;7.046;2022-10-19T14:37:50;3.97;;;1.50;;
5795;SDS011;2924;51.458;7.046;2022-10-19T14:42:46;1.63;;;1.17;;
5795;SDS011;2924;51.458;7.046;2022-10-19T14:45:20;6.83;;;1.47;;
5795;SDS011;2924;51.458;7.046;2022-10-19T14:50:22;4.60;;;1.40;;
5795;SDS011;2924;51.458;7.046;2022-10-19T14:56:10;10.97;;;2.00;;
5795;SDS011;2924;51.458;7.046;2022-10-19T14:58:40;10.20;;;2.13;;
5795;SDS011;2924;51.458;7.046;2022-10-19T15:01:14;3.57;;;1.40;;
5795;SDS011;2924;51.458;7.046;2022-10-19T15:03:42;5.00;;;2.17;;
5795;SDS011;2924;51.458;7.046;2022-10-19T15:09:06;10.03;;;1.80;;
5795;SDS011;2924;51.458;7.046;2022-10-19T15:11:42;5.03;;;1.37;;
5795;SDS011;2924;51.458;7.046;2022-10-19T15:14:14;6.90;;;1.30;;
5795;SDS011;2924;51.458;7.046;2022-10-19T15:16:51;5.57;;;1.73;;
5795;SDS011;2924;51.458;7.046;2022-10-19T15:19:29;11.43;;;2.20;;
5795;SDS011;2924;51.458;7.046;2022-10-19T15:22:05;5.63;;;1.73;;
5795;SDS011;2924;51.458;7.046;2022-10-19T15:24:53;3.23;;;1.87;;
5795;SDS011;2924;51.458;7.046;2022-10-19T15:27:35;23.20;;;2.60;;
5795;SDS011;2924;51.458;7.046;2022-10-19T15:30:05;5.07;;;1.50;;
5795;SDS011;2924;51.458;7.046;2022-10-19T15:32:32;7.50;;;1.60;;
5795;SDS011;2924;51.458;7.046;2022-10-19T15:35:10;4.30;;;1.30;;
5795;SDS011;2924;51.458;7.046;2022-10-19T15:37:42;5.40;;;1.50;;
5795;SDS011;2924;51.458;7.046;2022-10-19T15:40:15;7.00;;;1.93;;
5795;SDS011;2924;51.458;7.046;2022-10-19T15:42:53;7.40;;;1.23;;
5795;SDS011;2924;51.458;7.046;2022-10-19T15:45:29;5.60;;;1.70;;
5795;SDS011;2924;51.458;7.046;2022-10-19T15:54:11;10.40;;;2.77;;
5795;SDS011;2924;51.458;7.046;2022-10-19T15:56:37;5.77;;;1.73;;
5795;SDS011;2924;51.458;7.046;2022-10-19T15:59:04;1.87;;;1.27;;
5795;SDS011;2924;51.458;7.046;2022-10-19T16:01:35;6.93;;;1.70;;
5795;SDS011;2924;51.458;7.046;2022-10-19T16:04:01;7.83;;;2.50;;
5795;SDS011;2924;51.458;7.046;2022-10-19T16:06:28;25.30;;;1.50;;
5795;SDS011;2924;51.458;7.046;2022-10-19T16:08:56;6.23;;;1.57;;
5795;SDS011;2924;51.458;7.046;2022-10-19T16:11:22;4.40;;;1.20;;
5795;SDS011;2924;51.458;7.046;2022-10-19T16:13:49;3.20;;;1.33;;
5795;SDS011;2924;51.458;7.046;2022-10-19T16:16:33;1.70;;;1.30;;
5795;SDS011;2924;51.458;7.046;2022-10-19T16:18:59;5.90;;;1.70;;
5795;SDS011;2924;51.458;7.046;2022-10-19T16:21:32;8.13;;;1.63;;
5795;SDS011;2924;51.458;7.046;2022-10-19T16:23:59;6.63;;;1.43;;
5795;SDS011;2924;51.458;7.046;2022-10-19T16:26:26;3.93;;;1.33;;
5795;SDS011;2924;51.458;7.046;2022-10-19T16:28:53;10.80;;;1.93;;
5795;SDS011;2924;51.458;7.046;2022-10-19T16:31:20;5.00;;;1.50;;
5795;SDS011;2924;51.458;7.046;2022-10-19T16:33:46;10.00;;;2.10;;
5795;SDS011;2924;51.458;7.046;2022-10-19T16:36:11;4.63;;;1.30;;
5795;SDS011;2924;51.458;7.046;2022-10-19T16:38:37;1.60;;;1.23;;
5795;SDS011;2924;51.458;7.046;2022-10-19T16:41:05;5.07;;;1.70;;
5795;SDS011;2924;51.458;7.046;2022-10-19T16:43:32;2.90;;;1.37;;
5795;SDS011;2924;51.458;7.046;2022-10-19T16:45:58;7.60;;;1.90;;
5795;SDS011;2924;51.458;7.046;2022-10-19T16:48:24;11.40;;;1.73;;
5795;SDS011;2924;51.458;7.046;2022-10-19T16:51:36;6.70;;;3.20;;
5795;SDS011;2924;51.458;7.046;2022-10-19T16:53:44;8.67;;;2.70;;
5795;SDS011;2924;51.458;7.046;2022-10-19T16:56:11;6.17;;;1.97;;
5795;SDS011;2924;51.458;7.046;2022-10-19T16:58:38;29.97;;;5.00;;
5795;SDS011;2924;51.458;7.046;2022-10-19T17:01:37;8.73;;;2.20;;
5795;SDS011;2924;51.458;7.046;2022-10-19T17:03:57;6.03;;;2.70;;
5795;SDS011;2924;51.458;7.046;2022-10-19T17:06:24;3.17;;;2.10;;
5795;SDS011;2924;51.458;7.046;2022-10-19T17:08:50;3.37;;;2.00;;
5795;SDS011;2924;51.458;7.046;2022-10-19T17:13:49;4.93;;;1.70;;
5795;SDS011;2924;51.458;7.046;2022-10-19T17:16:16;2.30;;;2.03;;
5795;SDS011;2924;51.458;7.046;2022-10-19T17:18:44;4.60;;;2.47;;
5795;SDS011;2924;51.458;7.046;2022-10-19T17:21:11;8.03;;;2.73;;
5795;SDS011;2924;51.458;7.046;2022-10-19T17:23:39;4.33;;;2.43;;
5795;SDS011;2924;51.458;7.046;2022-10-19T17:26:05;6.10;;;2.33;;
5795;SDS011;2924;51.458;7.046;2022-10-19T17:28:32;4.00;;;2.57;;
5795;SDS011;2924;51.458;7.046;2022-10-19T17:31:09;2.97;;;1.90;;
5795;SDS011;2924;51.458;7.046;2022-10-19T17:33:37;9.77;;;2.60;;
5795;SDS011;2924;51.458;7.046;2022-10-19T17:36:05;5.80;;;2.70;;
5795;SDS011;2924;51.458;7.046;2022-10-19T17:38:38;5.57;;;2.00;;
5795;SDS011;2924;51.458;7.046;2022-10-19T17:41:06;6.13;;;1.87;;
5795;SDS011;2924;51.458;7.046;2022-10-19T17:43:33;11.70;;;2.67;;
5795;SDS011;2924;51.458;7.046;2022-10-19T17:46:01;3.30;;;2.40;;
5795;SDS011;2924;51.458;7.046;2022-10-19T17:48:29;3.90;;;2.87;;
5795;SDS011;2924;51.458;7.046;2022-10-19T17:50:56;3.57;;;2.33;;
5795;SDS011;2924;51.458;7.046;2022-10-19T17:53:27;11.47;;;2.83;;
5795;SDS011;2924;51.458;7.046;2022-10-19T17:55:53;25.80;;;2.43;;
5795;SDS011;2924;51.458;7.046;2022-10-19T17:58:19;7.77;;;3.47;;
5795;SDS011;2924;51.458;7.046;2022-10-19T18:00:46;4.00;;;2.70;;
5795;SDS011;2924;51.458;7.046;2022-10-19T18:03:16;7.10;;;2.80;;
5795;SDS011;2924;51.458;7.046;2022-10-19T18:05:42;7.73;;;2.80;;
5795;SDS011;2924;51.458;7.046;2022-10-19T18:08:07;10.87;;;3.03;;